Time;durP1;ratioP1;P1;durP2;ratioP2;P2;SDS_P1;SDS_P2;PMS_P1;PMS_P2;Temp;Humidity;BMP_temperature;BMP_pressure;BME280_temperature;BME280_humidity;BME280_pressure;Samples;Min_cycle;Max_cycle;Signal;HPM_P1;HPM_P2
2021/04/23 00:01:05;;;;;;;;;;;2.40;91.80;;;;;;5087963;28;19995;-72
2021/04/23 00:03:31;;;;;;;;;;;2.40;91.90;;;;;;5088099;28;19912;-72
2021/04/23 00:06:14;;;;;;;;;;;2.40;92.10;;;;;;5081532;28;20027;-72
2021/04/23 00:08:44;;;;;;;;;;;2.40;92.20;;;;;;5087716;28;20723;-72
2021/04/23 00:11:10;;;;;;;;;;;2.40;92.40;;;;;;5087699;28;19908;-71
2021/04/23 00:13:37;;;;;;;;;;;2.30;92.40;;;;;;5087756;28;19920;-72
2021/04/23 00:16:03;;;;;;;;;;;2.30;92.60;;;;;;5087021;28;19913;-72
2021/04/23 00:18:28;;;;;;;;;;;2.30;92.60;;;;;;5086250;28;19913;-72
2021/04/23 00:20:54;;;;;;;;;;;2.20;92.20;;;;;;5087776;28;19954;-72
2021/04/23 00:23:19;;;;;;;;;;;2.20;92.30;;;;;;5087297;28;19973;-72
2021/04/23 00:25:45;;;;;;;;;;;2.20;92.40;;;;;;5086461;28;19912;-72
2021/04/23 00:28:12;;;;;;;;;;;2.20;92.30;;;;;;5086538;28;20409;-72
2021/04/23 00:30:39;;;;;;;;;;;2.30;92.80;;;;;;5087610;28;19908;-72
2021/04/23 00:33:05;;;;;;;;;;;2.30;92.70;;;;;;5087455;28;20354;-71
2021/04/23 00:35:32;;;;;;;;;;;2.30;92.70;;;;;;5081647;28;19955;-72
2021/04/23 00:37:58;;;;;;;;;;;2.30;92.80;;;;;;5097510;28;19923;-72
2021/04/23 00:40:28;;;;;;;;;;;2.20;92.90;;;;;;5107651;28;19915;-72
2021/04/23 00:42:55;;;;;;;;;;;2.10;92.80;;;;;;5106439;28;19977;-72
2021/04/23 00:45:22;;;;;;;;;;;2.10;92.90;;;;;;5107489;28;19908;-72
2021/04/23 00:47:49;;;;;;;;;;;2.10;92.90;;;;;;5105974;28;19918;-72
2021/04/23 00:50:32;;;;;;;;;;;2.10;93.00;;;;;;5094988;28;19916;-72
2021/04/23 00:52:57;;;;;;;;;;;2.10;93.00;;;;;;5093611;28;19913;-72
2021/04/23 00:55:23;;;;;;;;;;;2.10;93.10;;;;;;5093820;28;19908;-72
2021/04/23 00:57:49;;;;;;;;;;;2.10;93.20;;;;;;5092584;28;20203;-72
2021/04/23 01:00:16;;;;;;;;;;;2.20;93.30;;;;;;5093930;28;20334;-72
2021/04/23 01:02:41;;;;;;;;;;;2.20;93.40;;;;;;5093698;28;20242;-72
2021/04/23 01:05:07;;;;;;;;;;;2.10;93.40;;;;;;5087433;28;19912;-71
2021/04/23 01:07:32;;;;;;;;;;;2.10;93.50;;;;;;5092297;28;20388;-72
2021/04/23 01:09:58;;;;;;;;;;;2.10;93.90;;;;;;5093696;28;19908;-72
2021/04/23 01:12:23;;;;;;;;;;;2.10;94.10;;;;;;5093526;28;19915;-72
2021/04/23 01:14:49;;;;;;;;;;;2.00;94.20;;;;;;5093635;28;19945;-72
2021/04/23 01:17:14;;;;;;;;;;;2.00;94.40;;;;;;5092641;28;19922;-72
2021/04/23 01:19:40;;;;;;;;;;;1.90;94.50;;;;;;5091804;28;19908;-71
2021/04/23 01:22:05;;;;;;;;;;;1.80;94.70;;;;;;5092985;28;19908;-72
2021/04/23 01:24:32;;;;;;;;;;;1.70;94.80;;;;;;5093325;28;19908;-72
2021/04/23 01:26:57;;;;;;;;;;;1.70;94.90;;;;;;5088188;28;19912;-72
2021/04/23 01:29:23;;;;;;;;;;;1.60;95.00;;;;;;5093060;28;19908;-71
2021/04/23 01:31:53;;;;;;;;;;;1.60;95.10;;;;;;5093134;28;20377;-72
2021/04/23 01:34:25;;;;;;;;;;;1.60;95.30;;;;;;5087733;28;19912;-72
2021/04/23 01:36:52;;;;;;;;;;;1.50;95.50;;;;;;5091384;28;19912;-72
2021/04/23 01:39:20;;;;;;;;;;;1.50;95.80;;;;;;5093125;28;19937;-71
2021/04/23 01:41:46;;;;;;;;;;;1.50;95.90;;;;;;5092707;28;19912;-72
2021/04/23 01:44:12;;;;;;;;;;;1.50;96.00;;;;;;5092883;28;19934;-72
2021/04/23 01:46:38;;;;;;;;;;;1.50;95.80;;;;;;5090505;28;19912;-72
2021/04/23 01:49:11;;;;;;;;;;;1.40;95.90;;;;;;5092612;28;19951;-72
2021/04/23 01:51:37;;;;;;;;;;;1.30;96.10;;;;;;5092608;28;19953;-72
2021/04/23 01:54:04;;;;;;;;;;;1.30;96.30;;;;;;5092615;28;19908;-72
2021/04/23 01:56:29;;;;;;;;;;;1.20;96.50;;;;;;5091758;28;19915;-71
2021/04/23 01:58:55;;;;;;;;;;;1.10;96.60;;;;;;5092067;28;20300;-72
2021/04/23 02:01:20;;;;;;;;;;;1.00;96.70;;;;;;5091714;28;19958;-72
2021/04/23 02:03:46;;;;;;;;;;;1.00;96.80;;;;;;5091082;28;19908;-72
2021/04/23 02:06:12;;;;;;;;;;;0.90;97.00;;;;;;5087206;28;19908;-72
2021/04/23 02:08:38;;;;;;;;;;;0.90;97.20;;;;;;5091989;28;19908;-71
2021/04/23 02:11:09;;;;;;;;;;;0.80;97.50;;;;;;5092342;28;19915;-72
2021/04/23 02:13:36;;;;;;;;;;;0.80;97.70;;;;;;5092338;28;19912;-71
2021/04/23 02:16:01;;;;;;;;;;;0.80;98.00;;;;;;5089577;28;19915;-72
2021/04/23 02:18:27;;;;;;;;;;;0.70;98.30;;;;;;5092132;28;19912;-72
2021/04/23 02:20:53;;;;;;;;;;;0.80;98.50;;;;;;5093603;28;19908;-72
2021/04/23 02:23:19;;;;;;;;;;;0.80;98.70;;;;;;5093314;28;19908;-71
2021/04/23 02:25:49;;;;;;;;;;;0.80;98.80;;;;;;5092389;28;20273;-72
2021/04/23 02:28:16;;;;;;;;;;;0.80;98.90;;;;;;5091887;28;19917;-72
2021/04/23 02:30:43;;;;;;;;;;;0.80;98.80;;;;;;5091810;28;19908;-72
2021/04/23 02:33:10;;;;;;;;;;;0.80;98.80;;;;;;5091952;28;19912;-72
2021/04/23 02:35:35;;;;;;;;;;;0.80;98.80;;;;;;5085012;28;20300;-72
2021/04/23 02:38:01;;;;;;;;;;;0.80;98.80;;;;;;5090936;28;19916;-71
2021/04/23 02:40:27;;;;;;;;;;;0.80;98.70;;;;;;5091820;28;19961;-72
2021/04/23 02:42:54;;;;;;;;;;;0.90;98.60;;;;;;5091847;28;19908;-72
2021/04/23 02:45:21;;;;;;;;;;;0.90;98.50;;;;;;5091605;28;19915;-72
2021/04/23 02:47:47;;;;;;;;;;;0.90;98.50;;;;;;5090623;28;19999;-72
2021/04/23 02:50:13;;;;;;;;;;;0.90;98.30;;;;;;5090348;28;19962;-72
2021/04/23 02:52:39;;;;;;;;;;;0.90;98.30;;;;;;5091194;28;19908;-72
2021/04/23 02:55:05;;;;;;;;;;;0.90;98.40;;;;;;5090261;28;19912;-71
2021/04/23 02:57:31;;;;;;;;;;;0.90;98.50;;;;;;5090544;28;19913;-72
2021/04/23 02:59:56;;;;;;;;;;;1.00;98.60;;;;;;5091255;28;20055;-72
2021/04/23 03:02:22;;;;;;;;;;;1.00;98.70;;;;;;5091251;28;19912;-72
2021/04/23 03:04:48;;;;;;;;;;;0.90;98.70;;;;;;5085984;28;19962;-72
2021/04/23 03:07:13;;;;;;;;;;;0.90;98.70;;;;;;5089891;28;19908;-72
2021/04/23 03:09:39;;;;;;;;;;;0.90;98.80;;;;;;5091074;28;20365;-72
2021/04/23 03:12:05;;;;;;;;;;;0.90;98.90;;;;;;5090932;28;19912;-72
2021/04/23 03:14:30;;;;;;;;;;;0.90;99.10;;;;;;5091267;28;19912;-72
2021/04/23 03:16:56;;;;;;;;;;;0.80;99.30;;;;;;5089935;28;20281;-72
2021/04/23 03:19:22;;;;;;;;;;;0.80;99.40;;;;;;5089958;28;19908;-72
2021/04/23 03:21:48;;;;;;;;;;;0.80;99.60;;;;;;5091369;28;19915;-72
2021/04/23 03:24:14;;;;;;;;;;;0.80;99.90;;;;;;5089619;28;19912;-72
2021/04/23 03:26:40;;;;;;;;;;;0.80;99.90;;;;;;5090176;28;19908;-72
2021/04/23 03:29:06;;;;;;;;;;;0.80;99.90;;;;;;5090956;28;20322;-72
2021/04/23 03:31:33;;;;;;;;;;;0.80;99.90;;;;;;5091450;28;20276;-72
2021/04/23 03:33:59;;;;;;;;;;;0.70;99.90;;;;;;5087175;28;19909;-72
2021/04/23 03:36:24;;;;;;;;;;;0.70;99.90;;;;;;5087589;28;19908;-72
2021/04/23 03:38:51;;;;;;;;;;;0.60;99.90;;;;;;5090310;28;20335;-71
2021/04/23 03:41:38;;;;;;;;;;;0.60;99.90;;;;;;5091096;28;20396;-72
2021/04/23 03:44:03;;;;;;;;;;;0.60;99.90;;;;;;5090868;28;19954;-72
2021/04/23 03:46:30;;;;;;;;;;;0.50;99.90;;;;;;5090052;28;19912;-72
2021/04/23 03:48:55;;;;;;;;;;;0.50;99.90;;;;;;5090681;28;20331;-72
2021/04/23 03:51:22;;;;;;;;;;;0.40;99.90;;;;;;5091081;28;19909;-72
2021/04/23 03:53:48;;;;;;;;;;;0.40;99.90;;;;;;5090452;28;19915;-71
2021/04/23 03:56:14;;;;;;;;;;;0.30;99.90;;;;;;5089734;28;19927;-72
2021/04/23 03:58:40;;;;;;;;;;;0.30;99.90;;;;;;5090666;28;19912;-72
2021/04/23 04:01:07;;;;;;;;;;;0.20;99.90;;;;;;5090573;28;20006;-72
2021/04/23 04:03:33;;;;;;;;;;;0.10;99.90;;;;;;5091014;28;19909;-72
2021/04/23 04:05:58;;;;;;;;;;;0.20;99.90;;;;;;5084288;28;19980;-71
2021/04/23 04:08:24;;;;;;;;;;;0.20;99.90;;;;;;5090699;28;20338;-72
2021/04/23 04:10:50;;;;;;;;;;;0.20;99.90;;;;;;5090569;28;20467;-72
2021/04/23 04:13:16;;;;;;;;;;;0.20;99.90;;;;;;5090668;28;19917;-72
2021/04/23 04:15:41;;;;;;;;;;;0.10;99.90;;;;;;5089777;28;19908;-72
2021/04/23 04:18:08;;;;;;;;;;;0.10;99.90;;;;;;5090477;28;19919;-72
2021/04/23 04:20:35;;;;;;;;;;;0.10;99.90;;;;;;5090763;28;19908;-72
2021/04/23 04:23:00;;;;;;;;;;;0.10;99.90;;;;;;5089970;28;19912;-72
2021/04/23 04:25:28;;;;;;;;;;;0.10;99.90;;;;;;5093551;28;19908;-72
2021/04/23 04:27:54;;;;;;;;;;;0.10;99.90;;;;;;5093379;28;20312;-72
2021/04/23 04:30:20;;;;;;;;;;;0.10;99.90;;;;;;5094458;28;19961;-72
2021/04/23 04:32:46;;;;;;;;;;;0.10;99.90;;;;;;5094332;28;19912;-72
2021/04/23 04:35:12;;;;;;;;;;;0.10;99.90;;;;;;5089088;28;19954;-72
2021/04/23 04:37:37;;;;;;;;;;;0.20;99.90;;;;;;5092321;28;19963;-72
2021/04/23 04:40:04;;;;;;;;;;;0.20;99.90;;;;;;5094088;28;19951;-72
2021/04/23 04:42:30;;;;;;;;;;;0.20;99.90;;;;;;5094007;28;19908;-72
2021/04/23 04:45:00;;;;;;;;;;;0.10;99.90;;;;;;5093345;28;19977;-71
2021/04/23 04:47:27;;;;;;;;;;;0.10;99.90;;;;;;5092906;28;20384;-71
2021/04/23 04:49:52;;;;;;;;;;;0.10;99.90;;;;;;5093928;28;20377;-72
2021/04/23 04:52:18;;;;;;;;;;;0.10;99.90;;;;;;5093446;28;19947;-72
2021/04/23 04:54:43;;;;;;;;;;;0.10;99.90;;;;;;5092937;28;19915;-72
2021/04/23 04:57:09;;;;;;;;;;;0.10;99.90;;;;;;5092698;28;20388;-72
2021/04/23 04:59:34;;;;;;;;;;;0.10;99.90;;;;;;5093761;28;19958;-72
2021/04/23 05:02:00;;;;;;;;;;;0.10;99.90;;;;;;5093726;28;20006;-72
2021/04/23 05:04:25;;;;;;;;;;;0.10;99.90;;;;;;5088474;28;19913;-72
2021/04/23 05:06:51;;;;;;;;;;;0.20;99.90;;;;;;5092261;28;19908;-72
2021/04/23 05:09:16;;;;;;;;;;;0.30;99.90;;;;;;5093356;28;19978;-72
2021/04/23 05:11:42;;;;;;;;;;;0.40;99.90;;;;;;5093670;28;19931;-72
2021/04/23 05:14:07;;;;;;;;;;;0.40;99.90;;;;;;5093655;28;19908;-72
2021/04/23 05:16:33;;;;;;;;;;;0.60;99.90;;;;;;5092739;28;19908;-72
2021/04/23 05:18:59;;;;;;;;;;;0.60;99.90;;;;;;5092229;28;19916;-72
2021/04/23 05:21:25;;;;;;;;;;;0.70;99.90;;;;;;5094024;28;20265;-72
2021/04/23 05:23:51;;;;;;;;;;;0.80;99.90;;;;;;5093423;28;20284;-72
2021/04/23 05:26:16;;;;;;;;;;;0.90;99.90;;;;;;5093058;28;19908;-72
2021/04/23 05:28:42;;;;;;;;;;;1.00;99.90;;;;;;5093539;28;19909;-72
2021/04/23 05:31:07;;;;;;;;;;;1.10;99.90;;;;;;5093516;28;20289;-72
2021/04/23 05:33:33;;;;;;;;;;;1.20;99.90;;;;;;5092179;28;19930;-72
2021/04/23 05:35:58;;;;;;;;;;;1.20;99.90;;;;;;5086655;28;19911;-72
2021/04/23 05:38:24;;;;;;;;;;;1.30;99.90;;;;;;5092731;28;19916;-72
2021/04/23 05:40:50;;;;;;;;;;;1.40;99.90;;;;;;5093287;28;19908;-71
2021/04/23 05:43:17;;;;;;;;;;;1.40;99.90;;;;;;5093364;28;19912;-71
2021/04/23 05:45:43;;;;;;;;;;;1.50;99.90;;;;;;5092212;28;20322;-71
2021/04/23 05:48:08;;;;;;;;;;;1.50;99.90;;;;;;5091426;28;19908;-71
2021/04/23 05:50:35;;;;;;;;;;;1.60;99.90;;;;;;5093134;28;19931;-71
2021/04/23 05:53:01;;;;;;;;;;;1.70;99.90;;;;;;5091455;28;19988;-70
2021/04/23 05:55:27;;;;;;;;;;;1.80;99.90;;;;;;5093145;28;20369;-71
2021/04/23 05:57:54;;;;;;;;;;;1.90;99.90;;;;;;5092031;28;20146;-71
2021/04/23 06:00:20;;;;;;;;;;;2.00;99.90;;;;;;5093351;28;19930;-71
2021/04/23 06:02:47;;;;;;;;;;;2.00;99.90;;;;;;5092905;28;20444;-71
2021/04/23 06:05:13;;;;;;;;;;;2.20;99.90;;;;;;5087316;28;19931;-71
2021/04/23 06:07:39;;;;;;;;;;;2.30;99.90;;;;;;5091103;28;19990;-71
2021/04/23 06:10:06;;;;;;;;;;;2.40;99.90;;;;;;5092708;28;19915;-71
2021/04/23 06:12:31;;;;;;;;;;;2.50;99.90;;;;;;5092855;28;19908;-71
2021/04/23 06:14:57;;;;;;;;;;;2.60;99.90;;;;;;5086585;28;19913;-71
2021/04/23 06:17:22;;;;;;;;;;;2.70;99.90;;;;;;5090406;28;19912;-71
2021/04/23 06:19:48;;;;;;;;;;;2.90;99.90;;;;;;5092331;28;19908;-71
2021/04/23 06:22:13;;;;;;;;;;;3.00;99.90;;;;;;5092684;28;19908;-70
2021/04/23 06:24:39;;;;;;;;;;;3.10;99.90;;;;;;5092363;28;19987;-71
2021/04/23 06:27:05;;;;;;;;;;;3.30;99.90;;;;;;5090031;28;20365;-71
2021/04/23 06:29:33;;;;;;;;;;;3.40;99.90;;;;;;5083166;28;19909;-70
2021/04/23 06:31:58;;;;;;;;;;;3.60;99.90;;;;;;5085499;28;19995;-71
2021/04/23 06:34:24;;;;;;;;;;;3.70;99.90;;;;;;5086488;28;19999;-71
2021/04/23 06:36:49;;;;;;;;;;;3.90;99.90;;;;;;5090985;28;19953;-72
2021/04/23 06:39:17;;;;;;;;;;;4.00;99.90;;;;;;5091937;28;19951;-71
2021/04/23 06:41:42;;;;;;;;;;;4.20;99.80;;;;;;5080851;28;19908;-71
2021/04/23 06:44:08;;;;;;;;;;;4.40;99.70;;;;;;5091465;28;20422;-71
2021/04/23 06:46:34;;;;;;;;;;;4.50;99.30;;;;;;5090491;28;19915;-71
2021/04/23 06:48:59;;;;;;;;;;;4.70;99.20;;;;;;5091585;28;19934;-71
2021/04/23 06:51:25;;;;;;;;;;;4.80;99.50;;;;;;5091588;28;20285;-71
2021/04/23 06:53:51;;;;;;;;;;;5.00;99.00;;;;;;5090195;28;20285;-71
2021/04/23 06:56:16;;;;;;;;;;;5.10;99.30;;;;;;5090541;28;19908;-71
2021/04/23 06:58:43;;;;;;;;;;;5.30;98.90;;;;;;5090377;28;19912;-71
2021/04/23 07:01:09;;;;;;;;;;;5.50;98.80;;;;;;5091391;28;19912;-71
2021/04/23 07:03:34;;;;;;;;;;;5.60;98.60;;;;;;5091289;28;20053;-71
2021/04/23 07:06:00;;;;;;;;;;;5.80;98.30;;;;;;5084117;28;19908;-71
2021/04/23 07:08:25;;;;;;;;;;;5.90;97.60;;;;;;5090794;28;19913;-71
2021/04/23 07:10:51;;;;;;;;;;;6.10;97.40;;;;;;5089964;28;20432;-71
2021/04/23 07:13:17;;;;;;;;;;;6.50;98.00;;;;;;5091089;28;20273;-72
2021/04/23 07:15:43;;;;;;;;;;;7.40;97.70;;;;;;5090571;28;19908;-71
2021/04/23 07:18:08;;;;;;;;;;;8.60;96.30;;;;;;5091208;28;20010;-71
2021/04/23 07:20:34;;;;;;;;;;;9.80;95.10;;;;;;5091040;28;19912;-72
2021/04/23 07:23:00;;;;;;;;;;;11.00;92.70;;;;;;5091109;28;19908;-72
2021/04/23 07:25:25;;;;;;;;;;;11.80;90.40;;;;;;5091129;28;19912;-71
2021/04/23 07:27:51;;;;;;;;;;;12.70;87.60;;;;;;5090182;28;20331;-72
2021/04/23 07:30:19;;;;;;;;;;;13.40;85.50;;;;;;5091315;28;20372;-72
2021/04/23 07:32:45;;;;;;;;;;;13.90;81.30;;;;;;5090549;28;20368;-72
2021/04/23 07:35:10;;;;;;;;;;;14.30;78.60;;;;;;5081485;28;19915;-72
2021/04/23 07:37:36;;;;;;;;;;;14.70;78.30;;;;;;5089479;28;20389;-72
2021/04/23 07:40:06;;;;;;;;;;;15.50;72.60;;;;;;5090953;28;19908;-72
2021/04/23 07:42:32;;;;;;;;;;;16.10;73.20;;;;;;5090599;28;19954;-72
2021/04/23 07:44:57;;;;;;;;;;;16.80;71.10;;;;;;5091066;28;19908;-72
2021/04/23 07:47:22;;;;;;;;;;;17.20;65.30;;;;;;5089514;28;19953;-72
2021/04/23 07:49:48;;;;;;;;;;;17.50;63.70;;;;;;5091003;28;19999;-72
2021/04/23 07:52:14;;;;;;;;;;;17.60;62.70;;;;;;5089023;28;19999;-72
2021/04/23 07:54:40;;;;;;;;;;;17.60;63.10;;;;;;5090687;28;20045;-73
2021/04/23 07:57:07;;;;;;;;;;;17.80;62.70;;;;;;5089820;28;19916;-72
2021/04/23 07:59:32;;;;;;;;;;;17.90;61.70;;;;;;5092918;28;19961;-72
2021/04/23 08:01:57;;;;;;;;;;;17.80;61.10;;;;;;5083144;28;19912;-72
2021/04/23 08:04:24;;;;;;;;;;;17.90;61.80;;;;;;5094513;28;19915;-72
2021/04/23 08:06:50;;;;;;;;;;;18.00;59.70;;;;;;5086074;28;20293;-72
2021/04/23 08:09:15;;;;;;;;;;;18.30;59.60;;;;;;5087564;28;19912;-72
2021/04/23 08:11:41;;;;;;;;;;;18.00;59.20;;;;;;5085092;28;19916;-72
2021/04/23 08:14:06;;;;;;;;;;;17.90;57.00;;;;;;5081873;28;20375;-72
2021/04/23 08:16:32;;;;;;;;;;;17.60;56.80;;;;;;5079453;28;19937;-73
2021/04/23 08:18:57;;;;;;;;;;;17.30;58.70;;;;;;5089981;28;19912;-72
2021/04/23 08:21:23;;;;;;;;;;;17.30;59.20;;;;;;5085939;28;19908;-72
2021/04/23 08:23:49;;;;;;;;;;;17.20;58.40;;;;;;5095890;28;19915;-72
2021/04/23 08:26:15;;;;;;;;;;;17.20;57.60;;;;;;5081582;28;19951;-72
2021/04/23 08:28:41;;;;;;;;;;;17.40;60.60;;;;;;5078575;28;19912;-72
2021/04/23 08:31:07;;;;;;;;;;;17.60;58.90;;;;;;5077275;28;20449;-72
2021/04/23 08:33:33;;;;;;;;;;;17.80;56.90;;;;;;5082208;28;19943;-72
2021/04/23 08:35:58;;;;;;;;;;;17.70;58.00;;;;;;5074917;28;19916;-72
2021/04/23 08:38:24;;;;;;;;;;;17.80;57.10;;;;;;5093493;28;19916;-72
2021/04/23 08:40:54;;;;;;;;;;;17.70;55.30;;;;;;5093783;28;19985;-72
2021/04/23 08:43:20;;;;;;;;;;;17.40;55.10;;;;;;5090509;28;19916;-72
2021/04/23 08:45:46;;;;;;;;;;;17.70;59.30;;;;;;5078291;28;19912;-72
2021/04/23 08:48:11;;;;;;;;;;;18.00;57.90;;;;;;5089397;28;19908;-72
2021/04/23 08:50:37;;;;;;;;;;;18.20;55.10;;;;;;5093727;28;19908;-72
2021/04/23 08:53:04;;;;;;;;;;;18.00;57.60;;;;;;5093527;28;19915;-73
2021/04/23 08:55:29;;;;;;;;;;;18.10;56.00;;;;;;5093100;28;19912;-72
2021/04/23 08:57:55;;;;;;;;;;;18.30;56.40;;;;;;5075294;28;20426;-72
2021/04/23 09:00:20;;;;;;;;;;;18.60;56.10;;;;;;5076722;28;19915;-73
2021/04/23 09:02:46;;;;;;;;;;;18.60;54.60;;;;;;5091843;28;19909;-73
2021/04/23 09:05:12;;;;;;;;;;;18.70;55.70;;;;;;5080942;28;20569;-73
2021/04/23 09:07:38;;;;;;;;;;;18.90;57.40;;;;;;5086501;28;19999;-72
2021/04/23 09:10:09;;;;;;;;;;;19.00;53.70;;;;;;5075554;28;20038;-72
2021/04/23 09:12:35;;;;;;;;;;;19.00;53.60;;;;;;5072910;28;20682;-72
2021/04/23 09:15:02;;;;;;;;;;;19.10;54.40;;;;;;5081902;28;19912;-72
2021/04/23 09:17:29;;;;;;;;;;;18.70;52.00;;;;;;5089933;28;20384;-73
2021/04/23 09:19:55;;;;;;;;;;;18.60;53.70;;;;;;5081064;28;20381;-72
2021/04/23 09:22:25;;;;;;;;;;;18.80;56.00;;;;;;5086821;28;19908;-72
2021/04/23 09:25:03;;;;;;;;;;;19.00;53.20;;;;;;5077096;28;19909;-72
2021/04/23 09:27:30;;;;;;;;;;;19.30;53.40;;;;;;5090876;28;19912;-72
2021/04/23 09:29:57;;;;;;;;;;;19.60;53.60;;;;;;5089695;28;19931;-72
2021/04/23 09:32:27;;;;;;;;;;;20.00;51.80;;;;;;5072752;28;19916;-73
2021/04/23 09:34:59;;;;;;;;;;;20.30;53.00;;;;;;5076649;28;19919;-72
2021/04/23 09:37:26;;;;;;;;;;;20.30;51.30;;;;;;5087987;28;19916;-72
2021/04/23 09:39:52;;;;;;;;;;;20.50;53.00;;;;;;5076438;28;19961;-73
2021/04/23 09:42:18;;;;;;;;;;;20.50;49.00;;;;;;5074699;28;20403;-72
2021/04/23 09:44:43;;;;;;;;;;;20.60;51.30;;;;;;5090961;28;19987;-72
2021/04/23 09:47:15;;;;;;;;;;;20.70;49.30;;;;;;5082180;28;20050;-73
2021/04/23 09:49:51;;;;;;;;;;;20.60;49.00;;;;;;5071308;28;19914;-72
2021/04/23 09:52:17;;;;;;;;;;;20.90;51.00;;;;;;5072202;28;20354;-73
2021/04/23 09:54:52;;;;;;;;;;;21.00;51.60;;;;;;5070822;28;19904;-73
2021/04/23 09:57:22;;;;;;;;;;;21.20;50.50;;;;;;5071553;28;19916;-73
2021/04/23 09:59:49;;;;;;;;;;;21.50;51.10;;;;;;5072179;28;20402;-72
2021/04/23 10:02:15;;;;;;;;;;;21.70;51.40;;;;;;5072419;28;19975;-72
2021/04/23 10:04:41;;;;;;;;;;;22.00;47.20;;;;;;5075798;28;19914;-73
2021/04/23 10:07:07;;;;;;;;;;;22.00;47.80;;;;;;5091300;28;19998;-73
2021/04/23 10:10:02;;;;;;;;;;;22.20;48.90;;;;;;5092311;28;20404;-72
2021/04/23 10:12:34;;;;;;;;;;;22.10;47.00;;;;;;5077765;28;20011;-73
2021/04/23 10:15:07;;;;;;;;;;;21.70;49.20;;;;;;5092532;28;19908;-72
2021/04/23 10:17:32;;;;;;;;;;;21.80;46.70;;;;;;5091463;28;19916;-72
2021/04/23 10:19:58;;;;;;;;;;;21.80;49.40;;;;;;5092302;28;20281;-73
2021/04/23 10:22:24;;;;;;;;;;;22.00;46.80;;;;;;5089730;28;19912;-72
2021/04/23 10:24:50;;;;;;;;;;;22.40;50.00;;;;;;5090632;28;19912;-72
2021/04/23 10:27:16;;;;;;;;;;;22.40;46.60;;;;;;5089905;28;19912;-72
2021/04/23 10:29:43;;;;;;;;;;;22.10;46.40;;;;;;5091932;28;19908;-72
2021/04/23 10:32:09;;;;;;;;;;;21.50;44.10;;;;;;5090297;28;19919;-72
2021/04/23 10:34:35;;;;;;;;;;;20.80;49.80;;;;;;5085510;28;19916;-72
2021/04/23 10:37:01;;;;;;;;;;;20.80;49.20;;;;;;5089373;28;19916;-73
2021/04/23 10:39:27;;;;;;;;;;;21.00;48.50;;;;;;5090373;28;20015;-73
2021/04/23 10:41:53;;;;;;;;;;;21.20;47.50;;;;;;5092332;28;20309;-72
2021/04/23 10:44:21;;;;;;;;;;;20.90;46.20;;;;;;5091427;28;19952;-72
2021/04/23 10:46:49;;;;;;;;;;;21.00;49.00;;;;;;5089439;28;19908;-72
2021/04/23 10:49:14;;;;;;;;;;;21.30;48.50;;;;;;5091300;28;19953;-72
2021/04/23 10:51:41;;;;;;;;;;;21.70;48.80;;;;;;5091470;28;20389;-72
2021/04/23 10:54:12;;;;;;;;;;;22.10;48.00;;;;;;5091713;28;19998;-73
2021/04/23 10:56:38;;;;;;;;;;;22.60;47.10;;;;;;5089462;28;19949;-72
2021/04/23 10:59:04;;;;;;;;;;;22.60;47.00;;;;;;5090122;28;19912;-72
2021/04/23 11:01:36;;;;;;;;;;;22.90;45.90;;;;;;5091164;28;19908;-72
2021/04/23 11:04:04;;;;;;;;;;;22.70;45.10;;;;;;5086628;28;20404;-72
2021/04/23 11:06:30;;;;;;;;;;;22.00;46.30;;;;;;5088583;28;19953;-72
2021/04/23 11:08:59;;;;;;;;;;;21.50;47.20;;;;;;5091193;28;19956;-72
2021/04/23 11:11:28;;;;;;;;;;;21.20;47.90;;;;;;5089586;28;19995;-72
2021/04/23 11:13:54;;;;;;;;;;;21.10;48.20;;;;;;5091305;28;19995;-72
2021/04/23 11:16:23;;;;;;;;;;;20.80;45.70;;;;;;5090315;28;20384;-72
2021/04/23 11:18:54;;;;;;;;;;;20.90;47.80;;;;;;5091237;28;19918;-72
2021/04/23 11:21:22;;;;;;;;;;;20.90;46.00;;;;;;5091061;28;20265;-73
2021/04/23 11:24:06;;;;;;;;;;;21.10;45.50;;;;;;5091114;28;19912;-73
2021/04/23 11:26:50;;;;;;;;;;;21.20;45.00;;;;;;5089945;28;19912;-73
2021/04/23 11:29:16;;;;;;;;;;;21.20;45.60;;;;;;5089886;28;19919;-73
2021/04/23 11:32:00;;;;;;;;;;;21.50;45.60;;;;;;5078141;28;19916;-73
2021/04/23 11:34:37;;;;;;;;;;;21.90;46.20;;;;;;5082863;28;19912;-73
2021/04/23 11:37:03;;;;;;;;;;;22.10;43.50;;;;;;5089929;28;19942;-73
2021/04/23 11:39:30;;;;;;;;;;;22.40;44.40;;;;;;5089574;28;19999;-72
2021/04/23 11:42:15;;;;;;;;;;;22.60;46.80;;;;;;5091031;28;19919;-72
2021/04/23 11:44:43;;;;;;;;;;;22.90;44.80;;;;;;5090769;28;20003;-72
2021/04/23 11:47:08;;;;;;;;;;;22.70;41.80;;;;;;5090063;28;19969;-71
2021/04/23 11:49:34;;;;;;;;;;;22.00;44.60;;;;;;5091163;28;19908;-71
2021/04/23 11:52:01;;;;;;;;;;;21.70;44.70;;;;;;5090717;28;19931;-71
2021/04/23 11:54:47;;;;;;;;;;;21.40;42.10;;;;;;5090494;28;19916;-71
2021/04/23 11:57:13;;;;;;;;;;;21.30;44.40;;;;;;5089422;28;20323;-72
2021/04/23 11:59:57;;;;;;;;;;;21.20;41.40;;;;;;5089499;28;19919;-71
2021/04/23 12:02:56;;;;;;;;;;;21.20;43.70;;;;;;5090290;28;19996;-71
2021/04/23 12:05:32;;;;;;;;;;;21.30;44.50;;;;;;5048254;28;20003;-71
2021/04/23 12:08:01;;;;;;;;;;;20.80;40.70;;;;;;5090038;28;19918;-71
2021/04/23 12:10:28;;;;;;;;;;;20.50;41.90;;;;;;5088981;28;20004;-71
2021/04/23 12:12:53;;;;;;;;;;;20.50;43.90;;;;;;5090349;28;19919;-71
2021/04/23 12:15:23;;;;;;;;;;;20.60;41.80;;;;;;5090695;28;19908;-71
2021/04/23 12:17:48;;;;;;;;;;;20.40;40.50;;;;;;5089644;28;19958;-72
2021/04/23 12:20:22;;;;;;;;;;;20.40;40.40;;;;;;5090677;28;19908;-71
2021/04/23 12:22:48;;;;;;;;;;;20.50;39.00;;;;;;5090211;28;19915;-71
2021/04/23 12:25:20;;;;;;;;;;;20.50;40.80;;;;;;5090480;28;19998;-72
2021/04/23 12:27:45;;;;;;;;;;;20.30;39.90;;;;;;5089626;28;20475;-72
2021/04/23 12:30:11;;;;;;;;;;;20.20;37.00;;;;;;5087906;28;19999;-72
2021/04/23 12:32:48;;;;;;;;;;;20.00;36.60;;;;;;5088590;28;19995;-71
2021/04/23 12:35:13;;;;;;;;;;;20.00;41.20;;;;;;5083615;28;20011;-71
2021/04/23 12:37:46;;;;;;;;;;;19.90;37.40;;;;;;5086249;28;20011;-71
2021/04/23 12:40:28;;;;;;;;;;;19.80;36.20;;;;;;5079613;28;20355;-71
2021/04/23 12:42:53;;;;;;;;;;;19.90;38.40;;;;;;5090127;28;19915;-72
2021/04/23 12:45:19;;;;;;;;;;;19.90;37.40;;;;;;5091264;28;19909;-71
2021/04/23 12:47:48;;;;;;;;;;;19.80;37.60;;;;;;5093052;28;19912;-71
2021/04/23 12:50:14;;;;;;;;;;;19.90;38.70;;;;;;5094040;28;20007;-71
2021/04/23 12:52:39;;;;;;;;;;;20.00;38.60;;;;;;5091157;28;20017;-72
2021/04/23 12:55:05;;;;;;;;;;;20.00;36.90;;;;;;5113761;28;19966;-71
2021/04/23 12:57:32;;;;;;;;;;;19.90;36.40;;;;;;5112959;28;19938;-72
2021/04/23 13:00:00;;;;;;;;;;;19.80;36.30;;;;;;5113751;28;19960;-72
2021/04/23 13:02:28;;;;;;;;;;;19.70;37.50;;;;;;5113556;28;19915;-72
2021/04/23 13:05:03;;;;;;;;;;;20.10;38.70;;;;;;5087142;28;19908;-71
2021/04/23 13:07:29;;;;;;;;;;;20.40;37.90;;;;;;5092096;28;20354;-72
2021/04/23 13:09:58;;;;;;;;;;;20.60;37.90;;;;;;5093392;28;20336;-72
2021/04/23 13:12:25;;;;;;;;;;;20.60;37.70;;;;;;5091583;28;19912;-72
2021/04/23 13:14:54;;;;;;;;;;;20.70;37.80;;;;;;5102590;28;19930;-71
2021/04/23 13:17:20;;;;;;;;;;;20.70;38.40;;;;;;5106214;28;20000;-72
2021/04/23 13:19:47;;;;;;;;;;;20.60;34.70;;;;;;5092888;28;19911;-72
2021/04/23 13:22:25;;;;;;;;;;;20.60;34.90;;;;;;5091191;28;19908;-72
2021/04/23 13:24:51;;;;;;;;;;;20.70;35.00;;;;;;5092527;28;20234;-72
2021/04/23 13:27:33;;;;;;;;;;;20.80;36.60;;;;;;5092024;28;19966;-71
2021/04/23 13:30:00;;;;;;;;;;;20.60;36.40;;;;;;5093199;28;19993;-71
2021/04/23 13:32:26;;;;;;;;;;;20.20;35.60;;;;;;5092728;28;19908;-72
2021/04/23 13:34:55;;;;;;;;;;;20.10;37.40;;;;;;5086515;28;19912;-71
2021/04/23 13:37:31;;;;;;;;;;;20.20;38.20;;;;;;5091096;28;19965;-72
2021/04/23 13:40:09;;;;;;;;;;;20.30;36.90;;;;;;5092699;28;20384;-71
2021/04/23 13:42:35;;;;;;;;;;;20.20;37.90;;;;;;5092674;28;19915;-72
2021/04/23 13:45:10;;;;;;;;;;;20.10;37.80;;;;;;5093096;28;19908;-72
2021/04/23 13:47:37;;;;;;;;;;;20.20;36.00;;;;;;5091569;28;19920;-72
2021/04/23 13:50:10;;;;;;;;;;;20.50;37.40;;;;;;5092910;28;20337;-72
2021/04/23 13:52:40;;;;;;;;;;;20.60;35.20;;;;;;5092263;28;20388;-72
2021/04/23 13:55:08;;;;;;;;;;;20.70;40.10;;;;;;5086093;28;19913;-72
2021/04/23 13:57:33;;;;;;;;;;;20.90;37.20;;;;;;5090641;28;19912;-72
2021/04/23 13:59:59;;;;;;;;;;;21.00;38.50;;;;;;5092557;28;20192;-72
2021/04/23 14:02:25;;;;;;;;;;;21.30;37.40;;;;;;5092133;28;19915;-72
2021/04/23 14:04:51;;;;;;;;;;;21.60;36.70;;;;;;5086027;28;19904;-72
2021/04/23 14:07:18;;;;;;;;;;;21.60;35.90;;;;;;5079471;28;19962;-72
2021/04/23 14:09:44;;;;;;;;;;;21.10;35.10;;;;;;5091537;28;19912;-71
2021/04/23 14:12:11;;;;;;;;;;;21.10;35.00;;;;;;5090845;28;20024;-72
2021/04/23 14:14:37;;;;;;;;;;;21.30;36.60;;;;;;5092773;28;19912;-72
2021/04/23 14:17:07;;;;;;;;;;;21.40;35.40;;;;;;5089646;28;19912;-72
2021/04/23 14:19:33;;;;;;;;;;;21.50;34.70;;;;;;5091279;28;19912;-72
2021/04/23 14:21:59;;;;;;;;;;;22.00;36.50;;;;;;5086719;28;19955;-73
2021/04/23 14:24:24;;;;;;;;;;;22.60;37.50;;;;;;5091198;28;19969;-71